createdAt,value
2023-02-11T00:00:41.869Z,51.42
2023-02-11T00:02:46.065Z,69.60
2023-02-11T00:04:49.001Z,63.67
2023-02-11T00:06:50.612Z,37.60
2023-02-11T00:08:52.314Z,32.80
2023-02-11T00:10:55.565Z,31.67
2023-02-11T00:12:57.172Z,34.60
2023-02-11T00:14:58.669Z,32.30
2023-02-11T00:17:00.183Z,31.30
2023-02-11T00:19:03.346Z,32.97
2023-02-11T00:21:14.174Z,33.65
2023-02-11T00:23:15.661Z,53.63
2023-02-11T00:25:17.195Z,60.72
2023-02-11T00:27:18.918Z,45.50
2023-02-11T00:29:20.422Z,37.22
2023-02-11T00:31:23.200Z,38.20
2023-02-11T00:33:24.866Z,36.70
2023-02-11T00:35:26.404Z,39.15
2023-02-11T00:37:28.124Z,38.03
2023-02-11T00:39:29.899Z,39.53
2023-02-11T00:41:31.466Z,39.17
2023-02-11T00:43:33.050Z,37.70
2023-02-11T00:45:34.562Z,62.03
2023-02-11T00:47:36.583Z,79.68
2023-02-11T00:49:40.364Z,58.17
2023-02-11T00:51:41.992Z,105.03
2023-02-11T00:53:43.611Z,85.45
2023-02-11T00:55:45.319Z,44.47
2023-02-11T00:57:46.903Z,45.22
2023-02-11T00:59:48.605Z,36.72
2023-02-11T01:01:50.302Z,36.15
2023-02-11T01:03:51.930Z,45.67
2023-02-11T01:05:54.183Z,41.45
2023-02-11T01:07:55.864Z,42.45
2023-02-11T01:09:57.440Z,84.18
2023-02-11T01:11:59.022Z,86.55
2023-02-11T01:14:00.622Z,59.58
2023-02-11T01:16:02.216Z,50.50
2023-02-11T01:18:05.277Z,57.78
2023-02-11T01:20:09.529Z,43.42
2023-02-11T01:22:11.090Z,40.85
2023-02-11T01:24:12.639Z,39.38
2023-02-11T01:26:14.185Z,37.60
2023-02-11T01:28:24.391Z,41.00
2023-02-11T01:30:25.982Z,42.67
2023-02-11T01:32:27.608Z,44.33
2023-02-11T01:34:29.119Z,45.65
2023-02-11T01:36:30.658Z,39.95
2023-02-11T01:38:33.297Z,40.13
2023-02-11T01:40:35.053Z,41.08
2023-02-11T01:42:36.747Z,42.95
2023-02-11T01:44:40.200Z,40.40
2023-02-11T01:46:41.971Z,44.25
2023-02-11T01:48:57.764Z,43.08
2023-02-11T01:51:04.876Z,47.03
2023-02-11T01:53:25.409Z,43.15
2023-02-11T01:55:45.434Z,42.83
2023-02-11T01:57:51.149Z,64.35
2023-02-11T01:59:56.882Z,43.22
2023-02-11T02:02:02.453Z,38.30
2023-02-11T02:04:06.509Z,37.20
2023-02-11T02:06:16.743Z,40.72
2023-02-11T02:08:40.659Z,39.80
2023-02-11T02:10:45.852Z,42.15
2023-02-11T02:12:47.470Z,38.60
2023-02-11T02:14:49.061Z,41.70
2023-02-11T02:16:50.690Z,40.50
2023-02-11T02:19:11.028Z,41.70
2023-02-11T02:21:32.536Z,41.95
2023-02-11T02:24:07.336Z,40.47
2023-02-11T02:26:30.643Z,44.50
2023-02-11T02:28:53.942Z,43.47
2023-02-11T02:31:14.460Z,41.55
2023-02-11T02:33:48.035Z,42.33
2023-02-11T02:36:01.539Z,41.55
2023-02-11T02:38:16.194Z,41.83
2023-02-11T02:40:25.118Z,41.67
2023-02-11T02:42:26.859Z,41.80
2023-02-11T02:44:29.491Z,41.30
2023-02-11T02:46:33.455Z,42.83
2023-02-11T02:48:35.842Z,41.33
2023-02-11T02:50:38.043Z,43.55
2023-02-11T02:52:51.885Z,43.13
2023-02-11T02:54:53.367Z,41.28
2023-02-11T02:57:04.944Z,41.28
2023-02-11T02:59:25.304Z,40.80
2023-02-11T03:01:50.517Z,41.88
2023-02-11T03:04:35.804Z,47.90
2023-02-11T03:07:16.560Z,50.15
2023-02-11T03:09:36.349Z,46.90
2023-02-11T03:11:38.002Z,44.05
2023-02-11T03:13:40.374Z,41.35
2023-02-11T03:15:44.607Z,40.13
2023-02-11T03:17:49.254Z,40.83
2023-02-11T03:19:51.792Z,38.42
2023-02-11T03:21:53.634Z,41.28
2023-02-11T03:23:58.138Z,37.72
2023-02-11T03:26:02.330Z,38.58
2023-02-11T03:28:13.842Z,40.53
2023-02-11T03:30:26.329Z,38.25
2023-02-11T03:32:32.878Z,38.78
2023-02-11T03:34:55.285Z,39.70
2023-02-11T03:37:02.604Z,34.58
2023-02-11T03:39:05.849Z,37.75
2023-02-11T03:41:09.358Z,36.83
2023-02-11T03:43:17.606Z,33.88
2023-02-11T03:45:23.534Z,35.53
2023-02-11T03:47:27.958Z,33.80
2023-02-11T03:49:32.110Z,35.08
2023-02-11T03:51:34.807Z,34.35
2023-02-11T03:53:37.430Z,34.58
2023-02-11T03:55:40.384Z,32.85
2023-02-11T03:57:41.983Z,33.47
2023-02-11T03:59:58.706Z,32.10
2023-02-11T04:02:00.298Z,33.35
2023-02-11T04:04:01.822Z,34.50
2023-02-11T04:06:03.917Z,34.55
2023-02-11T04:08:05.860Z,34.00
2023-02-11T04:10:08.063Z,34.72
2023-02-11T04:12:09.557Z,32.35
2023-02-11T04:14:11.034Z,33.03
2023-02-11T04:16:12.607Z,29.40
2023-02-11T04:18:14.152Z,31.60
2023-02-11T04:20:15.917Z,32.33
2023-02-11T04:22:17.468Z,29.92
2023-02-11T04:24:19.078Z,33.28
2023-02-11T04:26:21.304Z,29.42
2023-02-11T04:28:23.005Z,30.10
2023-02-11T04:30:24.668Z,33.22
2023-02-11T04:32:26.178Z,30.15
2023-02-11T04:34:27.765Z,32.03
2023-02-11T04:36:29.349Z,29.15
2023-02-11T04:38:30.867Z,27.98
2023-02-11T04:40:32.370Z,28.02
2023-02-11T04:42:33.980Z,28.23
2023-02-11T04:44:35.484Z,27.63
2023-02-11T04:46:37.032Z,27.25
2023-02-11T04:48:38.787Z,30.70
2023-02-11T04:50:41.400Z,29.10
2023-02-11T04:52:42.916Z,31.25
2023-02-11T04:54:44.685Z,30.33
2023-02-11T04:56:46.256Z,29.25
2023-02-11T04:58:47.886Z,27.02
2023-02-11T05:00:49.406Z,27.23
2023-02-11T05:02:50.937Z,29.05
2023-02-11T05:04:52.456Z,29.15
2023-02-11T05:06:53.943Z,28.50
2023-02-11T05:08:55.528Z,28.67
2023-02-11T05:10:57.162Z,30.38
2023-02-11T05:12:58.708Z,29.65
2023-02-11T05:15:00.249Z,28.90
2023-02-11T05:17:01.938Z,27.73
2023-02-11T05:19:03.557Z,28.65
2023-02-11T05:21:14.630Z,29.70
2023-02-11T05:23:16.210Z,29.52
2023-02-11T05:25:17.928Z,29.35
2023-02-11T05:27:19.473Z,30.75
2023-02-11T05:29:21.083Z,31.40
2023-02-11T05:31:22.746Z,30.33
2023-02-11T05:33:24.394Z,31.30
2023-02-11T05:35:25.860Z,31.08
2023-02-11T05:37:27.464Z,32.53
2023-02-11T05:39:29.012Z,33.53
2023-02-11T05:41:30.494Z,36.08
2023-02-11T05:43:32.543Z,43.67
2023-02-11T05:45:34.049Z,40.58
2023-02-11T05:47:35.578Z,43.17
2023-02-11T05:49:37.102Z,35.83
2023-02-11T05:51:38.671Z,34.90
2023-02-11T05:53:40.303Z,36.15
2023-02-11T05:55:41.865Z,38.88
2023-02-11T05:57:43.478Z,36.30
2023-02-11T05:59:44.995Z,35.60
2023-02-11T06:01:46.649Z,42.17
2023-02-11T06:03:50.056Z,41.08
2023-02-11T06:05:52.038Z,38.83
2023-02-11T06:07:53.710Z,35.95
2023-02-11T06:09:55.216Z,35.65
2023-02-11T06:11:56.710Z,35.83
2023-02-11T06:13:58.242Z,36.28
2023-02-11T06:16:01.778Z,39.50
2023-02-11T06:18:03.449Z,38.17
2023-02-11T06:20:08.573Z,37.05
2023-02-11T06:22:10.327Z,36.20
2023-02-11T06:24:12.659Z,35.08
2023-02-11T06:26:19.751Z,34.90
2023-02-11T06:28:21.435Z,34.35
2023-02-11T06:30:23.003Z,34.53
2023-02-11T06:32:42.752Z,33.20
2023-02-11T06:34:45.765Z,31.73
2023-02-11T06:36:47.694Z,33.95
2023-02-11T06:38:49.724Z,38.13
2023-02-11T06:40:51.355Z,45.47
2023-02-11T06:42:53.271Z,41.03
2023-02-11T06:44:54.837Z,47.72
2023-02-11T06:46:56.508Z,43.97
2023-02-11T06:48:58.080Z,58.38
2023-02-11T06:51:05.154Z,47.60
2023-02-11T06:53:06.647Z,48.58
2023-02-11T06:55:08.415Z,59.45
2023-02-11T06:57:09.958Z,55.50
2023-02-11T06:59:20.870Z,46.55
2023-02-11T07:01:23.490Z,43.22
2023-02-11T07:03:25.502Z,52.30
2023-02-11T07:05:27.022Z,36.40
2023-02-11T07:07:28.539Z,53.33
2023-02-11T07:09:30.178Z,45.53
2023-02-11T07:11:32.309Z,46.53
2023-02-11T07:13:33.825Z,41.17
2023-02-11T07:15:36.990Z,37.20
2023-02-11T07:17:38.624Z,41.88
2023-02-11T07:19:40.198Z,34.08
2023-02-11T07:21:41.738Z,34.83
2023-02-11T07:23:43.656Z,39.85
2023-02-11T07:25:45.257Z,33.22
2023-02-11T07:27:46.825Z,31.33
2023-02-11T07:29:48.805Z,38.45
2023-02-11T07:31:50.573Z,36.97
2023-02-11T07:33:54.305Z,33.53
2023-02-11T07:35:55.886Z,40.92
2023-02-11T07:37:57.419Z,39.63
2023-02-11T07:39:58.916Z,36.17
2023-02-11T07:42:00.414Z,44.35
2023-02-11T07:44:03.594Z,44.28
2023-02-11T07:46:07.517Z,64.53
2023-02-11T07:48:09.109Z,38.85
2023-02-11T07:50:10.722Z,36.55
2023-02-11T07:52:12.290Z,33.80
2023-02-11T07:54:13.805Z,36.10
2023-02-11T07:56:16.617Z,34.25
2023-02-11T07:58:18.077Z,30.23
2023-02-11T08:00:21.177Z,33.55
2023-02-11T08:02:22.912Z,30.25
2023-02-11T08:04:24.518Z,29.20
2023-02-11T08:06:29.359Z,30.48
2023-02-11T08:08:31.004Z,26.42
2023-02-11T08:10:32.638Z,26.88
2023-02-11T08:12:34.629Z,26.75
2023-02-11T08:14:36.887Z,27.95
2023-02-11T08:16:39.418Z,24.35
2023-02-11T08:18:41.127Z,26.00
2023-02-11T08:20:42.704Z,25.02
2023-02-11T08:22:44.293Z,26.58
2023-02-11T08:24:45.845Z,25.05
2023-02-11T08:26:47.509Z,26.45
2023-02-11T08:28:50.521Z,22.85
2023-02-11T08:30:52.516Z,22.48
2023-02-11T08:32:54.315Z,22.77
2023-02-11T08:34:56.105Z,22.52
2023-02-11T08:36:57.828Z,24.95
2023-02-11T08:39:17.387Z,26.10
2023-02-11T08:41:19.951Z,28.52
2023-02-11T08:43:21.671Z,23.90
2023-02-11T08:45:23.210Z,22.38
2023-02-11T08:47:24.757Z,32.63
2023-02-11T08:49:26.510Z,26.02
2023-02-11T08:51:33.070Z,28.15
2023-02-11T08:53:35.332Z,46.72
2023-02-11T08:55:36.893Z,31.73
2023-02-11T08:57:38.403Z,32.13
2023-02-11T08:59:40.147Z,35.53
2023-02-11T09:01:42.022Z,28.10
2023-02-11T09:03:43.696Z,33.25
2023-02-11T09:05:47.276Z,37.65
2023-02-11T09:07:48.922Z,31.02
2023-02-11T09:09:50.465Z,31.33
2023-02-11T09:11:52.260Z,27.42
2023-02-11T09:13:54.617Z,29.33
2023-02-11T09:15:56.978Z,32.42
2023-02-11T09:17:58.707Z,28.33
2023-02-11T09:20:00.289Z,29.08
2023-02-11T09:22:02.086Z,33.40
2023-02-11T09:24:03.960Z,28.73
2023-02-11T09:26:10.337Z,34.10
2023-02-11T09:28:11.962Z,26.33
2023-02-11T09:30:13.779Z,27.33
2023-02-11T09:32:15.550Z,31.08
2023-02-11T09:34:17.317Z,35.97
2023-02-11T09:36:21.803Z,29.92
2023-02-11T09:38:23.746Z,31.98
2023-02-11T09:40:25.301Z,31.55
2023-02-11T09:42:42.841Z,28.60
2023-02-11T09:44:46.333Z,29.33
2023-02-11T09:46:55.640Z,25.20
2023-02-11T09:48:57.787Z,23.98
2023-02-11T09:51:04.063Z,32.30
2023-02-11T09:53:18.308Z,29.90
2023-02-11T09:55:26.676Z,23.42
2023-02-11T09:57:36.778Z,25.20
2023-02-11T09:59:38.357Z,22.60
2023-02-11T10:02:09.845Z,31.13
2023-02-11T10:04:20.723Z,26.55
2023-02-11T10:06:44.042Z,40.15
2023-02-11T10:09:00.132Z,25.75
2023-02-11T10:11:31.563Z,24.27
2023-02-11T10:13:43.859Z,28.20
2023-02-11T10:15:56.157Z,25.05
2023-02-11T10:18:12.903Z,24.38
2023-02-11T10:20:44.907Z,26.48
2023-02-11T10:22:52.265Z,48.50
2023-02-11T10:25:02.819Z,25.70
2023-02-11T10:27:19.417Z,24.73
2023-02-11T10:29:42.230Z,26.15
2023-02-11T10:31:47.063Z,94.30
2023-02-11T10:34:04.813Z,27.33
2023-02-11T10:36:06.732Z,84.30
2023-02-11T10:38:09.292Z,33.10
2023-02-11T10:40:22.659Z,32.67
2023-02-11T10:42:25.162Z,31.90
2023-02-11T10:45:05.128Z,48.90
2023-02-11T10:47:18.685Z,22.73
2023-02-11T10:49:40.125Z,26.55
2023-02-11T10:51:41.691Z,27.30
2023-02-11T10:53:43.447Z,23.42
2023-02-11T10:55:57.276Z,24.27
2023-02-11T10:58:01.614Z,24.33
2023-02-11T11:00:37.143Z,23.27
2023-02-11T11:02:44.111Z,398.30
2023-02-11T11:04:46.195Z,466.77
2023-02-11T11:06:47.958Z,163.05
2023-02-11T11:08:51.662Z,133.45
2023-02-11T11:11:06.326Z,255.63
2023-02-11T11:13:24.219Z,62.63
2023-02-11T11:15:28.734Z,162.82
2023-02-11T11:17:30.518Z,31.65
2023-02-11T11:19:33.153Z,24.95
2023-02-11T11:21:46.860Z,57.42
2023-02-11T11:23:58.230Z,30.83
2023-02-11T11:26:09.486Z,31.30
2023-02-11T11:28:24.347Z,44.10
2023-02-11T11:30:33.356Z,30.17
2023-02-11T11:32:37.237Z,39.78
2023-02-11T11:34:48.568Z,84.60
2023-02-11T11:36:50.757Z,101.35
2023-02-11T11:38:58.836Z,80.32
2023-02-11T11:41:33.856Z,33.88
2023-02-11T11:43:37.631Z,34.80
2023-02-11T11:45:39.847Z,37.60
2023-02-11T11:47:52.632Z,31.20
2023-02-11T11:50:12.713Z,32.78
2023-02-11T11:52:35.605Z,31.30
2023-02-11T11:54:37.514Z,29.50
2023-02-11T11:57:06.103Z,38.60
2023-02-11T11:59:17.134Z,52.83
2023-02-11T12:01:30.532Z,35.25
2023-02-11T12:04:09.882Z,50.58
2023-02-11T12:06:14.046Z,31.38
2023-02-11T12:08:39.868Z,32.17
2023-02-11T12:11:00.192Z,29.27
2023-02-11T12:13:43.050Z,25.23
2023-02-11T12:15:57.230Z,46.70
2023-02-11T12:18:38.834Z,39.45
2023-02-11T12:21:13.128Z,34.17
2023-02-11T12:23:26.418Z,30.70
2023-02-11T12:25:35.960Z,29.38
2023-02-11T12:27:48.057Z,29.77
2023-02-11T12:30:00.499Z,30.73
2023-02-11T12:32:32.245Z,33.65
2023-02-11T12:35:26.188Z,30.73
2023-02-11T12:37:53.743Z,33.10
2023-02-11T12:40:42.643Z,50.00
2023-02-11T12:43:08.948Z,34.63
2023-02-11T12:45:14.048Z,33.60
2023-02-11T12:47:18.557Z,34.13
2023-02-11T12:49:42.144Z,37.28
2023-02-11T12:51:58.665Z,38.58
2023-02-11T12:54:07.484Z,49.25
2023-02-11T12:56:26.094Z,33.53
2023-02-11T12:58:44.026Z,33.58
2023-02-11T13:01:12.109Z,51.75
2023-02-11T13:03:33.279Z,50.50
2023-02-11T13:05:46.277Z,39.78
2023-02-11T13:07:50.008Z,60.40
2023-02-11T13:09:58.160Z,49.97
2023-02-11T13:12:23.606Z,34.33
2023-02-11T13:14:35.289Z,37.55
2023-02-11T13:16:39.828Z,37.10
2023-02-11T13:19:03.813Z,45.22
2023-02-11T13:21:23.923Z,49.05
2023-02-11T13:23:36.975Z,58.75
2023-02-11T13:25:47.674Z,140.82
2023-02-11T13:28:03.104Z,118.60
2023-02-11T13:30:28.266Z,77.93
2023-02-11T13:32:56.095Z,116.28
2023-02-11T13:34:58.928Z,38.25
2023-02-11T13:37:00.481Z,51.17
2023-02-11T13:39:05.886Z,34.83
2023-02-11T13:41:18.007Z,38.33
2023-02-11T13:43:24.841Z,34.30
2023-02-11T13:45:47.418Z,38.83
2023-02-11T13:47:52.384Z,66.05
2023-02-11T13:49:54.474Z,36.15
2023-02-11T13:51:57.178Z,33.10
2023-02-11T13:53:59.512Z,32.80
2023-02-11T13:56:11.563Z,31.33
2023-02-11T13:58:19.937Z,34.00
2023-02-11T14:00:34.017Z,28.00
2023-02-11T14:02:55.708Z,29.40
2023-02-11T14:05:25.199Z,31.48
2023-02-11T14:07:51.789Z,29.42
2023-02-11T14:09:57.094Z,29.75
2023-02-11T14:12:33.162Z,28.75
2023-02-11T14:15:00.343Z,27.75
2023-02-11T14:17:06.979Z,30.30
2023-02-11T14:19:08.788Z,23.67
2023-02-11T14:21:22.022Z,29.77
2023-02-11T14:23:27.406Z,32.33
2023-02-11T14:25:29.982Z,29.45
2023-02-11T14:27:42.188Z,34.53
2023-02-11T14:29:51.167Z,38.75
2023-02-11T14:31:52.775Z,39.90
2023-02-11T14:34:12.757Z,39.58
2023-02-11T14:36:43.982Z,40.22
2023-02-11T14:39:25.808Z,37.25
2023-02-11T14:41:35.662Z,49.25
2023-02-11T14:45:53.946Z,37.85
2023-02-11T14:48:05.643Z,35.63
2023-02-11T14:50:14.370Z,35.88
2023-02-11T14:52:29.578Z,31.13
2023-02-11T14:54:32.258Z,41.83
2023-02-11T14:56:34.588Z,35.13
2023-02-11T14:58:36.209Z,47.00
2023-02-11T15:00:51.643Z,50.78
2023-02-11T15:02:53.863Z,45.42
2023-02-11T15:05:13.371Z,43.20
2023-02-11T15:07:16.058Z,61.60
2023-02-11T15:09:41.928Z,48.00
2023-02-11T15:11:46.890Z,47.90
2023-02-11T15:13:50.396Z,68.43
2023-02-11T15:15:56.036Z,67.57
2023-02-11T15:18:00.830Z,58.38
2023-02-11T15:20:02.739Z,58.05
2023-02-11T15:22:07.351Z,67.40
2023-02-11T15:24:30.874Z,70.70
2023-02-11T15:26:32.998Z,61.58
2023-02-11T15:28:35.533Z,54.92
2023-02-11T15:30:37.267Z,66.97
2023-02-11T15:32:45.255Z,64.35
2023-02-11T15:34:48.251Z,72.95
2023-02-11T15:36:50.016Z,68.75
2023-02-11T15:39:17.460Z,64.10
2023-02-11T15:41:36.807Z,56.45
2023-02-11T15:43:47.410Z,51.08
2023-02-11T15:45:52.054Z,62.15
2023-02-11T15:47:59.814Z,61.92
2023-02-11T15:50:01.881Z,63.22
2023-02-11T15:52:04.363Z,52.17
2023-02-11T15:54:19.188Z,57.17
2023-02-11T15:56:25.606Z,57.83
2023-02-11T15:58:27.359Z,54.35
2023-02-11T16:00:36.232Z,56.35
2023-02-11T16:02:44.937Z,63.28
2023-02-11T16:04:52.253Z,59.28
2023-02-11T16:06:55.837Z,60.35
2023-02-11T16:09:25.678Z,50.92
2023-02-11T16:11:53.727Z,65.25
2023-02-11T16:13:55.636Z,69.32
2023-02-11T16:16:02.557Z,82.70
2023-02-11T16:18:14.141Z,85.43
2023-02-11T16:20:21.342Z,60.45
2023-02-11T16:22:26.302Z,61.15
2023-02-11T16:24:31.973Z,41.28
2023-02-11T16:26:43.578Z,52.67
2023-02-11T16:28:45.385Z,45.50
2023-02-11T16:30:53.386Z,48.22
2023-02-11T16:32:55.613Z,53.25
2023-02-11T16:35:00.970Z,54.53
2023-02-11T16:37:05.923Z,52.45
2023-02-11T16:39:07.635Z,63.63
2023-02-11T16:41:11.880Z,51.92
2023-02-11T16:43:13.458Z,73.85
2023-02-11T16:45:15.699Z,73.88
2023-02-11T16:47:24.369Z,61.72
2023-02-11T16:49:27.697Z,47.10
2023-02-11T16:51:29.432Z,75.30
2023-02-11T16:53:31.498Z,58.50
2023-02-11T16:55:34.960Z,94.82
2023-02-11T16:57:36.793Z,99.47
2023-02-11T16:59:38.409Z,70.75
2023-02-11T17:01:40.806Z,89.82
2023-02-11T17:03:43.864Z,103.32
2023-02-11T17:05:58.045Z,63.85
2023-02-11T17:08:01.909Z,69.18
2023-02-11T17:10:03.888Z,110.72
2023-02-11T17:12:06.027Z,182.18
2023-02-11T17:14:07.557Z,91.95
2023-02-11T17:16:21.127Z,85.78
2023-02-11T17:18:22.676Z,77.05
2023-02-11T17:20:24.959Z,70.65
2023-02-11T17:22:26.711Z,56.97
2023-02-11T17:24:28.537Z,68.68
2023-02-11T17:26:30.194Z,61.30
2023-02-11T17:28:32.511Z,66.57
2023-02-11T17:30:34.344Z,260.75
2023-02-11T17:32:36.961Z,270.17
2023-02-11T17:34:38.539Z,117.65
2023-02-11T17:36:41.413Z,576.25
2023-02-11T17:38:42.922Z,237.95
2023-02-11T17:40:44.624Z,398.65
2023-02-11T17:42:46.310Z,471.33
2023-02-11T17:44:48.062Z,320.33
2023-02-11T17:46:49.596Z,319.55
2023-02-11T17:48:53.198Z,172.00
2023-02-11T17:50:54.781Z,327.50
2023-02-11T17:52:56.980Z,183.98
2023-02-11T17:54:58.592Z,204.55
2023-02-11T17:57:00.164Z,108.93
2023-02-11T17:59:04.901Z,158.98
2023-02-11T18:01:06.687Z,106.18
2023-02-11T18:03:08.468Z,97.72
2023-02-11T18:05:10.486Z,87.20
2023-02-11T18:07:12.348Z,62.22
2023-02-11T18:09:14.113Z,163.25
2023-02-11T18:11:16.976Z,65.72
2023-02-11T18:13:18.504Z,44.95
2023-02-11T18:15:20.010Z,59.05
2023-02-11T18:17:24.198Z,48.13
2023-02-11T18:19:25.816Z,45.42
2023-02-11T18:21:27.394Z,51.47
2023-02-11T18:23:29.119Z,40.20
2023-02-11T18:25:30.794Z,37.15
2023-02-11T18:27:32.958Z,46.70
2023-02-11T18:29:35.599Z,43.60
2023-02-11T18:31:37.622Z,42.15
2023-02-11T18:33:41.142Z,42.83
2023-02-11T18:35:42.911Z,37.95
2023-02-11T18:37:44.521Z,53.30
2023-02-11T18:39:46.058Z,59.70
2023-02-11T18:41:47.748Z,52.05
2023-02-11T18:43:49.476Z,42.08
2023-02-11T18:45:51.638Z,41.17
2023-02-11T18:47:53.499Z,53.65
2023-02-11T18:49:55.105Z,41.67
2023-02-11T18:51:58.913Z,44.75
2023-02-11T18:54:01.683Z,73.05
2023-02-11T18:56:17.868Z,62.63
2023-02-11T18:58:21.379Z,70.20
2023-02-11T19:00:23.520Z,59.35
2023-02-11T19:02:25.317Z,60.85
2023-02-11T19:04:27.043Z,85.80
2023-02-11T19:06:31.932Z,70.43
2023-02-11T19:08:33.589Z,180.25
2023-02-11T19:10:35.338Z,73.20
2023-02-11T19:12:39.381Z,59.10
2023-02-11T19:14:40.966Z,58.72
2023-02-11T19:16:43.938Z,51.80
2023-02-11T19:18:45.495Z,67.53
2023-02-11T19:20:47.202Z,77.72
2023-02-11T19:22:48.761Z,57.53
2023-02-11T19:24:50.379Z,52.42
2023-02-11T19:26:53.683Z,71.07
2023-02-11T19:28:55.809Z,62.65
2023-02-11T19:30:57.455Z,59.25
2023-02-11T19:32:59.265Z,76.63
2023-02-11T19:35:00.808Z,43.88
2023-02-11T19:37:02.322Z,48.67
2023-02-11T19:39:05.162Z,58.03
2023-02-11T19:41:06.899Z,44.08
2023-02-11T19:43:08.660Z,43.95
2023-02-11T19:45:10.294Z,48.55
2023-02-11T19:47:13.630Z,62.53
2023-02-11T19:49:17.824Z,77.90
2023-02-11T19:51:20.714Z,69.18
2023-02-11T19:53:22.721Z,51.47
2023-02-11T19:55:24.350Z,36.05
2023-02-11T19:57:25.973Z,34.45
2023-02-11T19:59:27.839Z,29.83
2023-02-11T20:01:29.471Z,40.05
2023-02-11T20:03:31.041Z,55.40
2023-02-11T20:05:33.082Z,34.55
2023-02-11T20:07:35.211Z,124.65
2023-02-11T20:09:36.703Z,42.97
2023-02-11T20:11:38.698Z,51.92
2023-02-11T20:13:41.943Z,46.33
2023-02-11T20:15:43.506Z,41.00
2023-02-11T20:17:45.371Z,33.67
2023-02-11T20:19:46.913Z,49.80
2023-02-11T20:21:52.153Z,45.13
2023-02-11T20:23:54.368Z,48.47
2023-02-11T20:25:56.168Z,41.10
2023-02-11T20:27:57.833Z,45.30
2023-02-11T20:29:59.366Z,40.80
2023-02-11T20:32:01.288Z,38.15
2023-02-11T20:34:03.000Z,33.75
2023-02-11T20:36:10.815Z,78.72
2023-02-11T20:38:12.492Z,61.40
2023-02-11T20:40:14.231Z,39.67
2023-02-11T20:42:15.797Z,55.20
2023-02-11T20:44:17.373Z,54.17
2023-02-11T20:46:25.298Z,51.75
2023-02-11T20:48:26.845Z,41.22
2023-02-11T20:50:28.357Z,44.13
2023-02-11T20:52:29.884Z,38.50
2023-02-11T20:54:31.597Z,38.95
2023-02-11T20:56:36.872Z,39.08
2023-02-11T20:58:39.153Z,38.70
2023-02-11T21:00:40.861Z,62.17
2023-02-11T21:02:42.407Z,44.40
2023-02-11T21:04:44.119Z,42.70
2023-02-11T21:06:49.172Z,38.03
2023-02-11T21:08:51.313Z,48.97
2023-02-11T21:10:52.877Z,46.30
2023-02-11T21:12:54.536Z,61.70
2023-02-11T21:14:56.496Z,47.33
2023-02-11T21:16:58.218Z,49.72
2023-02-11T21:19:00.755Z,53.90
2023-02-11T21:21:03.147Z,41.33
2023-02-11T21:23:05.955Z,41.85
2023-02-11T21:25:08.693Z,45.60
2023-02-11T21:27:10.344Z,46.85
2023-02-11T21:29:12.074Z,62.42
2023-02-11T21:31:20.660Z,43.80
2023-02-11T21:33:23.628Z,30.95
2023-02-11T21:35:25.578Z,34.55
2023-02-11T21:37:27.136Z,37.50
2023-02-11T21:39:28.668Z,40.33
2023-02-11T21:41:30.568Z,40.63
2023-02-11T21:43:32.419Z,38.08
2023-02-11T21:45:33.930Z,43.50
2023-02-11T21:47:35.707Z,40.78
2023-02-11T21:49:37.239Z,54.03
2023-02-11T21:51:39.464Z,50.90
2023-02-11T21:53:40.987Z,47.80
2023-02-11T21:55:42.700Z,44.53
2023-02-11T21:57:44.194Z,49.58
2023-02-11T21:59:46.080Z,43.83
2023-02-11T22:01:47.767Z,45.17
2023-02-11T22:03:49.915Z,43.25
2023-02-11T22:05:51.551Z,45.55
2023-02-11T22:07:53.094Z,51.15
2023-02-11T22:09:55.810Z,47.13
2023-02-11T22:11:57.362Z,46.95
2023-02-11T22:13:59.322Z,44.70
2023-02-11T22:16:03.102Z,43.95
2023-02-11T22:18:04.792Z,46.78
2023-02-11T22:20:07.786Z,41.42
2023-02-11T22:22:09.477Z,41.92
2023-02-11T22:24:11.014Z,43.63
2023-02-11T22:26:18.325Z,50.72
2023-02-11T22:28:20.083Z,58.30
2023-02-11T22:30:21.754Z,46.10
2023-02-11T22:32:23.278Z,44.08
2023-02-11T22:34:24.791Z,49.55
2023-02-11T22:36:29.030Z,42.03
2023-02-11T22:38:31.846Z,41.85
2023-02-11T22:40:33.362Z,43.30
2023-02-11T22:42:34.872Z,52.65
2023-02-11T22:44:37.569Z,49.45
2023-02-11T22:46:39.509Z,64.15
2023-02-11T22:48:41.216Z,48.92
2023-02-11T22:50:42.870Z,46.78
2023-02-11T22:52:44.385Z,44.08
2023-02-11T22:54:46.025Z,44.40
2023-02-11T22:56:50.733Z,46.33
2023-02-11T22:58:56.151Z,48.30
2023-02-11T23:00:57.807Z,53.42
2023-02-11T23:02:59.349Z,48.70
2023-02-11T23:05:00.912Z,48.85
2023-02-11T23:07:02.424Z,58.78
2023-02-11T23:09:05.782Z,44.28
2023-02-11T23:11:10.579Z,45.22
2023-02-11T23:13:12.319Z,47.13
2023-02-11T23:15:13.991Z,44.50
2023-02-11T23:17:15.523Z,44.25
2023-02-11T23:19:18.222Z,46.83
2023-02-11T23:21:31.243Z,45.22
2023-02-11T23:23:34.332Z,45.67
2023-02-11T23:25:42.952Z,49.63
2023-02-11T23:27:44.540Z,46.95
2023-02-11T23:29:46.100Z,48.65
2023-02-11T23:31:47.831Z,47.97
2023-02-11T23:33:49.947Z,45.05
2023-02-11T23:35:51.593Z,43.05
2023-02-11T23:37:53.561Z,48.05
2023-02-11T23:39:55.056Z,54.15
2023-02-11T23:41:58.988Z,47.97
2023-02-11T23:44:00.610Z,48.95
2023-02-11T23:46:02.218Z,50.80
2023-02-11T23:48:03.837Z,44.13
2023-02-11T23:50:08.136Z,44.85
2023-02-11T23:52:09.666Z,45.80
2023-02-11T23:54:15.121Z,45.92
2023-02-11T23:56:20.128Z,46.90
2023-02-11T23:58:21.859Z,48.22
